WetterOnline ( https://www.wetteronline.de )

Wetter aktuell Bad Fallingbostel

Aktuelles Wetter: Soltau (76m)

6-stündlich | Neueste Meldungen
Ortszeit Temperatur Wetter
Sa, 29.01. 1:00 4.6° C bedeckt
Fr, 28.01. 19:00 4.4° C bewölkt
Fr, 28.01. 13:00 5.5° C leicht bewölkt
Fr, 28.01. 7:00 3.9° C bedeckt
Fr, 28.01. 1:00 4.0° C bewölkt
Do, 27.01. 19:00 5.6° C leichter Regen
Do, 27.01. 13:00 5.8° C leichter Regen
Do, 27.01. 7:00 3.3° C Sprühregen
Ortszeit Temperatur Wetter
Sa, 29.01. 3:00 5.2° C leichter Regen
Sa, 29.01. 2:40 5.1° C leichter Regen
Sa, 29.01. 2:30 4.9° C bedeckt
Sa, 29.01. 2:20 4.9° C Dunst
Sa, 29.01. 2:10 4.8° C Dunst
Sa, 29.01. 2:00 4.8° C bedeckt
Sa, 29.01. 1:50 4.8° C Dunst
Sa, 29.01. 1:30 4.6° C bedeckt
Sa, 29.01. 1:00 4.6° C bedeckt
Sa, 29.01. 0:30 4.3° C bewölkt
Sa, 29.01. 0:00 4.0° C bedeckt
Ortszeit Relative Feuchte Sichtweite
Sa, 29.01. 1:00 83% 14 km
Fr, 28.01. 19:00 74% 26 km
Fr, 28.01. 13:00 67% 26 km
Fr, 28.01. 7:00 79% 29 km
Fr, 28.01. 1:00 83% 25 km
Do, 27.01. 19:00 82% 23 km
Do, 27.01. 13:00 97% 10 km
Do, 27.01. 7:00 93% 2.4 km
Ortszeit Relative Feuchte Sichtweite
Sa, 29.01. 3:00 88% 6 km
Sa, 29.01. 2:40 88% -
Sa, 29.01. 2:30 88% 7 km
Sa, 29.01. 2:20 88% -
Sa, 29.01. 2:10 89% -
Sa, 29.01. 2:00 88% 7 km
Sa, 29.01. 1:50 88% -
Sa, 29.01. 1:30 87% 6 km
Sa, 29.01. 1:00 83% 14 km
Sa, 29.01. 0:30 81% 20 km
Sa, 29.01. 0:00 80% 26 km
Ortszeit Niederschlagsmenge Niederschlagsart
Sa, 29.01. 1:00 0.1 l/m2 in 6 Std. Regen
Fr, 28.01. 19:00 0.0 l/m2 in 12 Std. -
Fr, 28.01. 13:00 0.0 l/m2 in 6 Std. -
Fr, 28.01. 7:00 0.6 l/m2 in 12 Std. Regen
Fr, 28.01. 1:00 0.6 l/m2 in 6 Std. Regen
Do, 27.01. 19:00 4 l/m2 in 12 Std. Regen
Do, 27.01. 13:00 2 l/m2 in 6 Std. Regen
Do, 27.01. 7:00 0.3 l/m2 in 12 Std. Regen
Ortszeit Niederschlagsmenge Niederschlagsart
Sa, 29.01. 3:00 0.1 l/m2 in 1 Std. Regen
Sa, 29.01. 2:40 keine Meldung -
Sa, 29.01. 2:30 0.0 l/m2 in 1 Std. -
Sa, 29.01. 2:20 keine Meldung -
Sa, 29.01. 2:10 keine Meldung -
Sa, 29.01. 2:00 0.0 l/m2 in 1 Std. -
Sa, 29.01. 1:50 keine Meldung -
Sa, 29.01. 1:30 0.0 l/m2 in 1 Std. -
Sa, 29.01. 1:00 0.0 l/m2 in 1 Std. Regen
Sa, 29.01. 0:30 0.0 l/m2 in 1 Std. -
Sa, 29.01. 0:00 0.1 l/m2 in 1 Std. Regen
Ortszeit Stärke Spitze Richtung
km/h Bft. km/h Grad Sektor
Sa, 29.01. 1:00 14 3 29 230° SW
Fr, 28.01. 19:00 11 2 40 240° SW
Fr, 28.01. 13:00 25 4 47 310° NW
Fr, 28.01. 7:00 26 4 50 300° NW
Fr, 28.01. 1:00 26 4 57 280° W
Do, 27.01. 19:00 25 4 54 290° W
Do, 27.01. 13:00 28 4 50 260° W
Do, 27.01. 7:00 26 4 56 250° W
Ortszeit Stärke Spitze Richtung
km/h Bft. km/h Grad Sektor
Sa, 29.01. 3:00 18 3 32 230° SW
Sa, 29.01. 2:40 18 3 - 230° SW
Sa, 29.01. 2:30 14 3 32 230° SW
Sa, 29.01. 2:20 14 3 - 230° SW
Sa, 29.01. 2:10 14 3 - 230° SW
Sa, 29.01. 2:00 14 3 29 230° SW
Sa, 29.01. 1:50 14 3 - 230° SW
Sa, 29.01. 1:30 17 3 28 230° SW
Sa, 29.01. 1:00 14 3 29 230° SW
Sa, 29.01. 0:30 14 3 29 230° SW
Sa, 29.01. 0:00 11 2 25 220° SW
Ortszeit Untergrenze Bedeckung Gattung
total tief tief mittel hoch
Sa, 29.01. 1:00 390 m 8/8 8/8 - - -
Fr, 28.01. 19:00 1080 m 8/8 7/8 - - -
Fr, 28.01. 13:00 870 m 2/8 1/8 - - -
Fr, 28.01. 7:00 990 m 8/8 8/8 - - -
Fr, 28.01. 1:00 630 m 7/8 7/8 - - -
Do, 27.01. 19:00 780 m 7/8 7/8 - - -
Do, 27.01. 13:00 120 m 8/8 8/8 - - -
Do, 27.01. 7:00 240 m 7/8 7/8 - - -
Ortszeit Bedeckungsgrad in Achtel und Wolkenuntergrenze
Sa, 29.01. 3:00 8(300m)
Sa, 29.01. 2:40 8
Sa, 29.01. 2:30 8(300m)
Sa, 29.01. 2:20 8(300m)
Sa, 29.01. 2:10 8
Sa, 29.01. 2:00 8(300m)
Sa, 29.01. 1:50 8(300m)
Sa, 29.01. 1:30 8(330m)
Sa, 29.01. 1:00 8(390m)
Sa, 29.01. 0:30 7(450m) 7(1080m)
Sa, 29.01. 0:00 4(480m) 7(630m) 8(1050m)
Ortszeit Luftdruck NN (hPa) Tendenz (hPa in 3 Std.)
Sa, 29.01. 1:00 1026 - 3,2
Fr, 28.01. 19:00 1031 + 0,2
Fr, 28.01. 13:00 1030 + 2,2
Fr, 28.01. 7:00 1025 + 2,6
Fr, 28.01. 1:00 1020 + 2,3
Do, 27.01. 19:00 1016 + 0,9
Do, 27.01. 13:00 1016 - 0,9
Do, 27.01. 7:00 1018 - 2,3
Ortszeit Luftdruck NN (hPa) Tendenz (hPa in 3 Std.)
Sa, 29.01. 3:00 1024 - 3,6
Sa, 29.01. 2:40 1024 keine Meldung
Sa, 29.01. 2:30 1024 - 3,5
Sa, 29.01. 2:20 1024 keine Meldung
Sa, 29.01. 2:10 1024 keine Meldung
Sa, 29.01. 2:00 1025 - 3,2
Sa, 29.01. 1:50 1025 keine Meldung
Sa, 29.01. 1:30 1025 - 3,2
Sa, 29.01. 1:00 1026 - 3,2
Sa, 29.01. 0:30 1027 - 2,7
Sa, 29.01. 0:00 1027 - 2,3
Ortszeit Schneehöhe (cm)
Sa, 29.01. 1:00 0
Fr, 28.01. 19:00 0
Fr, 28.01. 13:00 0
Fr, 28.01. 7:00 0
Fr, 28.01. 1:00 0
Do, 27.01. 19:00 0
Do, 27.01. 13:00 0
Do, 27.01. 7:00 0
Ortszeit Schneehöhe (cm)
Sa, 29.01. 3:00 0
Sa, 29.01. 2:40 0
Sa, 29.01. 2:30 0
Sa, 29.01. 2:20 0
Sa, 29.01. 2:10 0
Sa, 29.01. 2:00 0
Sa, 29.01. 1:50 0
Sa, 29.01. 1:30 0
Sa, 29.01. 1:00 0
Sa, 29.01. 0:30 0
Sa, 29.01. 0:00 0
Link zu dieser Seite / Seite empfehlen

Das Wetter in ...